Time;durP1;ratioP1;P1;durP2;ratioP2;P2;SDS_P1;SDS_P2;PMS_P1;PMS_P2;Temp;Humidity;BMP_temperature;BMP_pressure;BME280_temperature;BME280_humidity;BME280_pressure;Samples;Min_cycle;Max_cycle;Signal;HPM_P1;HPM_P2
2021/12/05 00:18:40;;;;;;;16.83;3.13;;;;;;;4.33;100.00;99755.09;5032237;28;20052;-77
2021/12/05 00:24:03;;;;;;;11.48;3.10;;;;;;;4.12;100.00;99754.56;5035663;28;20040;-78
2021/12/05 00:26:31;;;;;;;15.15;3.70;;;;;;;4.02;100.00;99751.72;5028201;28;20523;-79
2021/12/05 00:32:08;;;;;;;14.85;4.30;;;;;;;3.88;100.00;99743.56;5036676;28;20130;-78
2021/12/05 00:38:20;;;;;;;20.42;5.22;;;;;;;3.89;100.00;99734.03;5036033;28;20036;-77
2021/12/05 00:46:03;;;;;;;24.25;6.82;;;;;;;3.91;100.00;99745.38;5033629;28;20424;-77
2021/12/05 01:17:19;;;;;;;26.65;8.57;;;;;;;3.84;100.00;99725.25;5043037;28;20036;-78
2021/12/05 01:19:46;;;;;;;19.77;8.25;;;;;;;3.83;100.00;99713.06;5033501;28;20029;-78
2021/12/05 01:22:13;;;;;;;20.40;8.25;;;;;;;3.83;100.00;99721.75;5040599;28;20084;-78
2021/12/05 01:25:12;;;;;;;24.75;8.15;;;;;;;3.81;100.00;99715.63;5040204;28;20469;-77
2021/12/05 01:41:06;;;;;;;13.10;6.47;;;;;;;3.79;100.00;99712.09;5037391;28;20032;-77
2021/12/05 02:16:04;;;;;;;24.60;8.45;;;;;;;3.74;100.00;99713.69;5038005;28;20479;-78
2021/12/05 02:43:12;;;;;;;12.23;4.43;;;;;;;3.76;100.00;99712.03;5028905;28;20041;-77
2021/12/05 02:45:42;;;;;;;10.63;3.90;;;;;;;3.74;100.00;99710.22;5035320;28;20484;-77
2021/12/05 02:48:09;;;;;;;12.30;4.72;;;;;;;3.69;100.00;99716.19;5034561;28;20032;-77
2021/12/05 02:50:37;;;;;;;10.35;4.20;;;;;;;3.69;100.00;99707.47;5037223;28;20496;-77
2021/12/05 02:53:15;;;;;;;11.25;5.40;;;;;;;3.66;100.00;99708.31;5041989;28;20021;-77
2021/12/05 02:55:43;;;;;;;12.25;5.07;;;;;;;3.66;100.00;99708.31;5025531;28;20528;-76
2021/12/05 02:58:33;;;;;;;13.63;4.85;;;;;;;3.64;100.00;99709.97;5033562;28;20034;-77
2021/12/05 03:01:13;;;;;;;12.02;4.75;;;;;;;3.66;100.00;99707.41;5039296;28;20091;-76
2021/12/05 03:03:39;;;;;;;11.98;4.90;;;;;;;3.63;100.00;99707.34;5032392;28;20033;-77
2021/12/05 03:06:16;;;;;;;14.82;4.78;;;;;;;3.59;100.00;99703.78;5035574;28;20401;-77
2021/12/05 03:08:42;;;;;;;10.85;5.43;;;;;;;3.59;100.00;99698.56;5026548;28;20021;-77
2021/12/05 03:11:09;;;;;;;12.02;5.30;;;;;;;3.58;100.00;99702.03;5032795;28;20037;-77
2021/12/05 03:13:37;;;;;;;12.00;5.85;;;;;;;3.60;100.00;99705.53;5041100;28;20042;-77
2021/12/05 03:16:04;;;;;;;10.10;5.70;;;;;;;3.60;100.00;99702.94;5036183;28;20034;-77
2021/12/05 03:18:29;;;;;;;15.30;6.68;;;;;;;3.63;100.00;99702.16;5039967;28;20024;-77
2021/12/05 03:20:58;;;;;;;10.27;6.03;;;;;;;3.66;100.00;99708.31;5032814;28;20025;-77
2021/12/05 03:23:25;;;;;;;12.85;5.78;;;;;;;3.62;100.00;99708.19;5032733;28;20029;-76
2021/12/05 03:25:54;;;;;;;17.55;5.93;;;;;;;3.60;100.00;99708.16;5035065;28;20036;-79
2021/12/05 03:28:19;;;;;;;12.90;5.38;;;;;;;3.57;100.00;99708.06;5036379;28;20128;-77
2021/12/05 03:30:45;;;;;;;8.80;4.97;;;;;;;3.60;100.00;99708.16;5038411;28;20529;-77
2021/12/05 03:33:11;;;;;;;6.78;2.47;;;;;;;3.56;100.00;99711.50;5035863;28;20414;-77
2021/12/05 03:35:37;;;;;;;3.08;2.08;;;;;;;3.51;100.00;99697.50;5038032;28;20488;-78
2021/12/05 03:38:04;;;;;;;5.30;1.80;;;;;;;3.48;100.00;99710.41;5034084;28;20029;-79
2021/12/05 03:40:32;;;;;;;6.38;2.50;;;;;;;3.40;100.00;99707.59;5033214;28;20021;-79
2021/12/05 03:43:01;;;;;;;3.72;1.75;;;;;;;3.35;100.00;99711.78;5040076;28;20025;-78
2021/12/05 03:45:38;;;;;;;3.88;2.10;;;;;;;3.34;100.00;99708.31;5034137;28;20037;-78
2021/12/05 03:48:07;;;;;;;3.63;2.33;;;;;;;3.31;100.00;99710.84;5034471;28;20030;-77
2021/12/05 03:50:33;;;;;;;7.18;2.65;;;;;;;3.29;100.00;99715.09;5035171;28;20029;-76
2021/12/05 03:53:01;;;;;;;4.93;2.72;;;;;;;3.26;100.00;99720.22;5034856;28;20038;-77
2021/12/05 03:55:27;;;;;;;8.13;3.28;;;;;;;3.22;100.00;99720.13;5031704;28;20025;-78
2021/12/05 03:57:53;;;;;;;6.45;3.28;;;;;;;3.21;100.00;99737.41;5032687;28;20035;-78
2021/12/05 04:00:28;;;;;;;5.47;3.50;;;;;;;3.23;100.00;99730.56;5033700;28;20093;-78
2021/12/05 04:02:56;;;;;;;5.32;2.90;;;;;;;3.22;100.00;99731.38;5030347;28;20072;-77
2021/12/05 04:05:25;;;;;;;8.13;3.35;;;;;;;3.26;100.00;99738.44;5037249;28;20020;-77
2021/12/05 04:07:50;;;;;;;8.27;3.15;;;;;;;3.26;100.00;99735.84;5033375;28;20079;-78
2021/12/05 04:10:17;;;;;;;11.98;3.60;;;;;;;3.29;100.00;99741.09;5031905;28;20025;-77
2021/12/05 04:12:43;;;;;;;11.68;4.40;;;;;;;3.30;100.00;99742.88;5032850;28;20032;-78
2021/12/05 04:15:11;;;;;;;10.65;5.30;;;;;;;3.31;100.00;99739.44;5039320;28;20140;-77
2021/12/05 04:17:40;;;;;;;9.25;4.93;;;;;;;3.35;100.00;99741.28;5032818;28;20060;-78
2021/12/05 04:20:08;;;;;;;16.92;5.25;;;;;;;3.37;100.00;99746.53;5024188;28;20109;-77
2021/12/05 04:22:33;;;;;;;6.95;5.25;;;;;;;3.41;100.00;99744.91;5038129;28;20024;-78
2021/12/05 04:25:04;;;;;;;11.00;5.72;;;;;;;3.41;100.00;99750.97;5039838;28;20457;-78
2021/12/05 04:27:29;;;;;;;10.30;5.45;;;;;;;3.41;100.00;99752.72;5044594;28;20129;-77
2021/12/05 04:29:55;;;;;;;10.25;5.70;;;;;;;3.42;100.00;99746.66;5030979;28;20533;-78
2021/12/05 04:32:21;;;;;;;7.22;5.05;;;;;;;3.41;100.00;99755.31;5032235;28;20465;-77
2021/12/05 04:34:46;;;;;;;8.20;5.35;;;;;;;3.45;100.00;99758.03;5042562;28;20029;-77
2021/12/05 04:37:12;;;;;;;13.77;6.30;;;;;;;3.46;100.00;99751.09;5024824;28;20036;-76
2021/12/05 04:39:38;;;;;;;13.05;6.57;;;;;;;3.43;100.00;99756.22;5032180;28;20017;-76
2021/12/05 04:42:04;;;;;;;10.55;6.38;;;;;;;3.42;100.00;99751.84;5036029;28;20225;-76
2021/12/05 04:44:30;;;;;;;8.65;6.60;;;;;;;3.37;100.00;99755.19;5021771;28;20079;-78
2021/12/05 04:46:57;;;;;;;8.80;6.78;;;;;;;3.40;100.00;99758.75;5030107;28;20546;-77
2021/12/05 04:49:23;;;;;;;9.40;6.30;;;;;;;3.35;100.00;99756.91;5033550;28;20377;-77
2021/12/05 04:51:49;;;;;;;10.70;5.75;;;;;;;3.35;100.00;99769.00;5042407;28;20025;-78
2021/12/05 04:54:17;;;;;;;9.10;5.75;;;;;;;3.34;100.00;99765.53;5033405;28;20539;-78
2021/12/05 04:56:45;;;;;;;10.27;5.68;;;;;;;3.28;100.00;99757.53;5041206;28;20027;-78
2021/12/05 04:59:13;;;;;;;10.10;6.38;;;;;;;3.29;100.00;99767.09;5030636;28;20087;-78
2021/12/05 05:01:41;;;;;;;13.32;6.50;;;;;;;3.29;100.00;99764.50;5033218;28;20080;-76
2021/12/05 05:04:18;;;;;;;14.52;7.22;;;;;;;3.29;100.00;99764.50;5037712;28;20029;-76
2021/12/05 05:06:44;;;;;;;10.77;6.38;;;;;;;3.28;100.00;99761.88;5033499;28;20107;-77
2021/12/05 05:09:10;;;;;;;10.55;6.38;;;;;;;3.28;100.00;99764.47;5041216;28;20420;-78
2021/12/05 05:11:37;;;;;;;13.45;6.97;;;;;;;3.30;100.00;99776.69;5032646;28;20033;-78
2021/12/05 05:14:03;;;;;;;11.10;6.85;;;;;;;3.27;100.00;99776.59;5033773;28;20523;-77
2021/12/05 05:16:30;;;;;;;13.07;7.60;;;;;;;3.27;100.00;99780.91;5030662;28;20103;-77
2021/12/05 05:19:00;;;;;;;12.50;7.35;;;;;;;3.26;100.00;99786.97;5031164;28;20083;-77
2021/12/05 05:24:10;;;;;;;14.73;7.78;;;;;;;3.23;100.00;99787.75;5032287;28;20358;-76
2021/12/05 05:40:14;;;;;;;11.80;7.97;;;;;;;3.23;100.00;99803.34;5037590;28;20047;-77
2021/12/05 05:45:45;;;;;;;16.52;9.73;;;;;;;3.23;100.00;99803.34;5033850;28;20076;-77
2021/12/05 05:50:39;;;;;;;15.50;9.20;;;;;;;3.26;100.00;99807.75;5032283;28;20041;-76
2021/12/05 05:53:05;;;;;;;15.93;9.07;;;;;;;3.24;100.00;99810.28;5031387;28;20457;-77
2021/12/05 05:55:31;;;;;;;20.50;10.55;;;;;;;3.24;100.00;99818.09;5033742;28;20032;-76
2021/12/05 05:58:05;;;;;;;17.92;9.80;;;;;;;3.24;100.00;99815.50;5033699;28;20021;-79
2021/12/05 06:00:35;;;;;;;17.73;10.27;;;;;;;3.24;100.00;99825.00;5028817;28;20029;-76
2021/12/05 06:03:22;;;;;;;19.70;9.98;;;;;;;3.24;100.00;99820.69;5031211;28;20021;-75
2021/12/05 06:05:57;;;;;;;18.58;10.02;;;;;;;3.26;100.00;99824.22;5024850;28;20052;-76
2021/12/05 06:08:25;;;;;;;15.63;9.68;;;;;;;3.25;100.00;99822.47;5027228;28;20563;-77
2021/12/05 06:10:57;;;;;;;18.75;9.40;;;;;;;3.27;100.00;99826.00;5023120;28;20030;-77
2021/12/05 06:13:24;;;;;;;15.52;8.90;;;;;;;3.26;100.00;99833.75;5042656;28;20048;-78
2021/12/05 06:15:51;;;;;;;18.58;8.55;;;;;;;3.24;100.00;99836.28;5029549;28;20025;-77
2021/12/05 06:18:17;;;;;;;18.90;8.98;;;;;;;3.27;100.00;99846.81;5025820;28;20386;-76
2021/12/05 06:20:43;;;;;;;18.45;8.82;;;;;;;3.22;100.00;99842.31;5025250;28;20065;-76
2021/12/05 06:23:10;;;;;;;14.75;8.93;;;;;;;3.18;100.00;99852.59;5030813;28;20084;-76
2021/12/05 06:25:38;;;;;;;12.75;7.97;;;;;;;3.16;100.00;99854.28;5034811;28;20476;-76
2021/12/05 06:28:11;;;;;;;16.88;8.70;;;;;;;3.17;100.00;99860.34;5034916;28;20056;-76
2021/12/05 06:38:54;;;;;;;16.10;8.27;;;;;;;3.18;100.00;99870.78;5035980;28;20047;-77
2021/12/05 06:41:34;;;;;;;15.02;7.50;;;;;;;3.17;100.00;99870.75;5028119;28;20124;-77
2021/12/05 06:46:34;;;;;;;10.55;6.80;;;;;;;3.18;100.00;99867.31;5034132;28;20039;-78
2021/12/05 06:48:59;;;;;;;12.43;7.15;;;;;;;3.17;100.00;99869.03;5034366;28;20075;-77
2021/12/05 06:51:27;;;;;;;12.07;7.50;;;;;;;3.16;100.00;99879.38;5035341;28;20049;-78
2021/12/05 06:53:54;;;;;;;12.13;6.32;;;;;;;3.14;100.00;99868.94;5034060;28;20389;-78
2021/12/05 06:56:20;;;;;;;14.00;7.82;;;;;;;3.13;100.00;99889.69;5033422;28;20044;-78
2021/12/05 06:58:45;;;;;;;10.43;6.55;;;;;;;3.15;100.00;99877.63;5035767;28;20033;-77
2021/12/05 07:01:12;;;;;;;11.40;6.50;;;;;;;3.17;100.00;99886.34;5032657;28;20056;-77
2021/12/05 07:03:41;;;;;;;10.50;6.68;;;;;;;3.16;100.00;99889.75;5033782;28;20469;-77
2021/12/05 07:06:11;;;;;;;8.68;5.95;;;;;;;3.17;100.00;99891.53;5033707;28;20129;-77
2021/12/05 07:08:40;;;;;;;12.82;6.53;;;;;;;3.16;100.00;99897.56;5035384;28;20029;-77
2021/12/05 07:11:24;;;;;;;15.65;6.95;;;;;;;3.13;100.00;99905.28;5033816;28;20029;-76
2021/12/05 07:21:51;;;;;;;16.23;8.95;;;;;;;3.16;100.00;99927.06;5035548;28;20044;-77
2021/12/05 07:40:21;;;;;;;16.17;8.52;;;;;;;3.20;100.00;99938.41;5029816;28;20047;-76
2021/12/05 07:40:31;;;;;;;16.08;9.10;;;;;;;3.25;100.00;99946.38;5034762;28;20044;-76
2021/12/05 07:43:00;;;;;;;16.02;9.65;;;;;;;3.25;100.00;99955.03;5033148;28;20702;-75
2021/12/05 07:45:34;;;;;;;19.55;9.27;;;;;;;3.27;100.00;99966.41;5030976;28;20521;-76
2021/12/05 07:48:09;;;;;;;17.70;8.75;;;;;;;3.27;100.00;99961.19;5033282;28;20032;-77
2021/12/05 07:51:00;;;;;;;17.13;8.98;;;;;;;3.30;100.00;99961.28;5029272;28;20526;-77
2021/12/05 07:53:34;;;;;;;13.70;7.82;;;;;;;3.32;100.00;99969.13;5022260;28;20080;-78
2021/12/05 07:56:09;;;;;;;14.18;8.07;;;;;;;3.32;100.00;99964.84;5020906;28;20065;-77
2021/12/05 08:15:14;;;;;;;13.43;7.18;;;;;;;3.24;100.00;99992.28;5018752;28;20393;-76
2021/12/05 08:17:41;;;;;;;13.77;6.95;;;;;;;3.26;100.00;99989.75;5033793;28;20030;-77
2021/12/05 08:20:10;;;;;;;13.60;7.05;;;;;;;3.24;100.00;99999.19;5020275;28;20547;-78
2021/12/05 08:22:40;;;;;;;;;;;;;;;3.24;100.00;100000.06;5023979;28;20105;-75
2021/12/05 08:25:11;;;;;;;17.35;7.07;;;;;;;3.32;100.00;100001.22;5021540;28;20004;-78
2021/12/05 08:27:48;;;;;;;15.75;7.40;;;;;;;3.35;100.00;100003.91;5022638;28;20054;-77
2021/12/05 08:30:23;;;;;;;15.70;7.20;;;;;;;3.42;100.00;100011.91;5017771;28;20385;-78
2021/12/05 08:33:09;;;;;;;14.30;7.85;;;;;;;3.51;100.00;100007.91;5031422;28;20473;-76
2021/12/05 08:39:05;;;;;;;18.55;8.52;;;;;;;3.54;100.00;100014.88;5031695;28;20033;-77
2021/12/05 08:41:51;;;;;;;14.70;8.35;;;;;;;3.52;100.00;100009.66;5032773;28;20091;-76
2021/12/05 08:44:43;;;;;;;17.77;9.13;;;;;;;3.55;100.00;100014.06;5032634;28;20046;-79
2021/12/05 09:38:38;;;;;;;17.15;7.78;;;;;;;3.97;100.00;100089.09;5023531;28;20087;-77
2021/12/05 09:53:05;;;;;;;14.52;6.93;;;;;;;4.08;100.00;100120.66;5026768;28;20084;-76
2021/12/05 10:13:38;;;;;;;11.32;6.97;;;;;;;4.93;100.00;100135.31;5029936;28;20044;-78
2021/12/05 10:27:25;;;;;;;9.50;4.93;;;;;;;7.38;99.16;100127.88;5029019;28;20068;-76
2021/12/05 10:35:59;;;;;;;6.47;4.30;;;;;;;8.75;87.18;100118.59;5032932;28;20401;-77
2021/12/05 10:38:31;;;;;;;6.60;4.50;;;;;;;8.61;87.10;100122.78;5027930;28;20067;-76
2021/12/05 10:41:06;;;;;;;6.10;4.38;;;;;;;8.37;88.77;100124.19;5033312;28;20026;-77
2021/12/05 10:43:33;;;;;;;7.82;4.43;;;;;;;7.65;89.95;100131.81;5034663;28;20108;-76
2021/12/05 10:46:10;;;;;;;5.05;3.67;;;;;;;7.35;92.83;100138.28;5034593;28;20056;-78
2021/12/05 10:48:51;;;;;;;6.78;4.15;;;;;;;7.10;94.23;100152.63;5029942;28;20033;-79
2021/12/05 10:51:27;;;;;;;7.78;4.15;;;;;;;7.00;96.09;100159.44;5025044;28;20036;-79
2021/12/05 10:53:57;;;;;;;6.45;4.03;;;;;;;6.86;97.23;100158.25;5025670;28;20354;-76
2021/12/05 10:56:25;;;;;;;8.15;3.65;;;;;;;7.07;96.50;100165.66;5030211;28;20050;-77
2021/12/05 10:59:16;;;;;;;4.63;3.08;;;;;;;7.83;94.97;100161.81;5031975;28;20083;-76
2021/12/05 11:02:01;;;;;;;4.22;3.03;;;;;;;8.37;92.25;100149.50;5022149;28;20172;-76
2021/12/05 11:04:51;;;;;;;5.85;3.17;;;;;;;8.99;88.74;100148.59;5022654;28;20033;-76
2021/12/05 11:07:21;;;;;;;5.57;3.08;;;;;;;9.81;84.84;100143.28;5025177;28;20087;-77
2021/12/05 11:09:57;;;;;;;3.92;2.25;;;;;;;10.05;82.92;100145.22;5029476;28;20508;-77
2021/12/05 11:12:35;;;;;;;3.90;2.40;;;;;;;9.39;81.74;100143.78;5038655;28;20029;-77
2021/12/05 11:15:08;;;;;;;3.40;2.38;;;;;;;8.65;83.68;100150.81;5047233;28;20026;-79
2021/12/05 11:17:39;;;;;;;3.72;2.30;;;;;;;8.59;86.76;100171.72;5034739;28;20033;-78
2021/12/05 11:20:09;;;;;;;4.45;2.38;;;;;;;8.02;88.65;100168.22;5032727;28;20129;-77
2021/12/05 11:22:43;;;;;;;3.33;2.30;;;;;;;7.97;89.34;100176.00;5030031;28;20022;-79
2021/12/05 11:25:12;;;;;;;4.00;2.30;;;;;;;7.91;90.49;100175.91;5030662;28;20052;-77
2021/12/05 11:27:49;;;;;;;3.97;2.70;;;;;;;7.71;90.85;100176.44;5026377;28;20068;-76
2021/12/05 11:30:19;;;;;;;5.38;2.60;;;;;;;7.59;91.76;100173.59;5027559;28;20093;-77
2021/12/05 11:32:50;;;;;;;4.97;2.03;;;;;;;7.58;91.80;100174.44;5027449;28;20381;-77
2021/12/05 11:35:25;;;;;;;2.75;2.03;;;;;;;7.57;91.29;100180.56;5029099;28;20037;-77
2021/12/05 11:38:10;;;;;;;3.28;2.05;;;;;;;7.70;91.94;100186.88;5032073;28;20473;-76
2021/12/05 11:40:44;;;;;;;5.43;2.35;;;;;;;7.74;91.33;100191.31;5032348;28;20025;-77
2021/12/05 11:43:14;;;;;;;4.45;2.33;;;;;;;7.81;91.70;100200.16;5033913;28;20029;-76
2021/12/05 11:46:00;;;;;;;4.32;2.30;;;;;;;7.67;90.38;100192.94;5032123;28;20048;-77
2021/12/05 11:48:42;;;;;;;6.75;1.90;;;;;;;7.67;90.74;100192.94;5030540;28;20497;-75
2021/12/05 11:51:41;;;;;;;2.75;1.70;;;;;;;7.81;90.19;100198.41;5025346;28;20096;-79
2021/12/05 11:54:11;;;;;;;3.83;1.83;;;;;;;8.29;89.32;100204.47;5032315;28;20032;-79
2021/12/05 11:56:56;;;;;;;3.28;2.13;;;;;;;8.87;86.25;100190.44;5034438;28;20029;-78
2021/12/05 11:59:22;;;;;;;3.15;1.92;;;;;;;8.76;84.14;100196.44;5036987;28;20032;-78
2021/12/05 12:01:57;;;;;;;2.70;1.98;;;;;;;8.47;85.68;100206.50;5033250;28;20334;-77
2021/12/05 12:04:39;;;;;;;2.17;1.75;;;;;;;8.13;86.49;100215.56;5034944;28;20075;-79
2021/12/05 12:07:10;;;;;;;3.08;2.10;;;;;;;7.98;88.40;100224.91;5031528;28;20041;-78
2021/12/05 12:09:36;;;;;;;3.83;2.15;;;;;;;7.75;89.12;100217.53;5029152;28;20041;-78
2021/12/05 12:12:02;;;;;;;5.75;2.05;;;;;;;7.52;90.44;100224.09;5034192;28;20208;-78
2021/12/05 12:14:35;;;;;;;5.97;2.00;;;;;;;7.38;90.74;100231.66;5033004;28;20040;-77
2021/12/05 12:17:04;;;;;;;3.67;2.10;;;;;;;7.28;91.71;100235.84;5013883;28;20026;-78
2021/12/05 12:19:30;;;;;;;2.38;1.88;;;;;;;7.16;92.16;100230.34;5033476;28;20026;-78
2021/12/05 12:21:59;;;;;;;4.47;3.22;;;;;;;7.00;93.54;100240.50;5029202;28;20499;-78
2021/12/05 12:24:26;;;;;;;4.88;3.20;;;;;;;6.94;94.40;100242.97;5029166;28;20083;-78
2021/12/05 12:26:53;;;;;;;3.78;2.75;;;;;;;6.85;95.13;100250.63;5024794;28;20118;-79
2021/12/05 12:29:19;;;;;;;4.20;2.65;;;;;;;6.77;94.94;100254.81;5031898;28;20732;-76
2021/12/05 12:31:47;;;;;;;5.88;4.20;;;;;;;6.67;95.97;100256.34;5027057;28;20037;-79
2021/12/05 12:34:17;;;;;;;6.28;3.30;;;;;;;6.62;96.23;100261.47;5037659;28;20028;-78
2021/12/05 12:36:48;;;;;;;3.85;2.90;;;;;;;6.53;96.67;100269.97;5029154;28;20033;-79
2021/12/05 12:39:21;;;;;;;5.75;3.15;;;;;;;6.40;96.53;100268.81;5025359;28;20034;-78
2021/12/05 12:42:04;;;;;;;4.93;3.72;;;;;;;6.32;97.28;100270.34;5028178;28;20030;-79
2021/12/05 12:44:31;;;;;;;7.45;3.35;;;;;;;6.27;97.42;100271.06;5037620;28;20473;-79
2021/12/05 12:47:02;;;;;;;5.70;3.78;;;;;;;6.24;97.91;100278.00;5031212;28;20033;-78
2021/12/05 12:49:31;;;;;;;5.68;3.97;;;;;;;6.23;98.89;100280.56;5033215;28;20036;-79
2021/12/05 12:52:08;;;;;;;4.90;3.75;;;;;;;6.19;99.12;100290.03;5032836;28;20029;-78
2021/12/05 12:54:55;;;;;;;6.50;4.07;;;;;;;6.18;98.53;100282.19;5031824;28;20055;-77
2021/12/05 12:57:33;;;;;;;8.40;4.25;;;;;;;6.14;98.65;100286.44;5033669;28;20112;-77
2021/12/05 13:00:09;;;;;;;4.57;4.03;;;;;;;6.11;99.87;100291.59;5031514;28;20048;-78
2021/12/05 13:10:59;;;;;;;7.55;6.07;;;;;;;5.93;100.00;100311.94;5031777;28;20172;-78
2021/12/05 13:13:28;;;;;;;10.52;6.90;;;;;;;5.83;100.00;100316.94;5032165;28;20044;-75
2021/12/05 13:15:59;;;;;;;9.85;6.75;;;;;;;5.77;100.00;100310.69;5033501;28;20091;-76
2021/12/05 13:18:38;;;;;;;9.20;6.82;;;;;;;5.72;100.00;100319.25;5032414;28;20112;-77
2021/12/05 13:21:25;;;;;;;9.70;7.95;;;;;;;5.69;100.00;100329.59;5031132;28;20033;-78
2021/12/05 13:23:57;;;;;;;12.65;7.82;;;;;;;5.64;100.00;100336.41;5036924;28;20044;-76
2021/12/05 13:26:39;;;;;;;11.32;8.40;;;;;;;5.61;100.00;100330.25;5033932;28;20029;-80
2021/12/05 13:29:15;;;;;;;12.35;7.80;;;;;;;5.59;100.00;100332.81;5034469;28;20037;-77
2021/12/05 13:31:53;;;;;;;19.40;10.07;;;;;;;5.56;100.00;100333.59;5039039;28;20041;-77
2021/12/05 13:34:35;;;;;;;15.45;9.32;;;;;;;5.55;100.00;100339.66;5035293;28;20034;-78
2021/12/05 13:37:06;;;;;;;16.92;9.30;;;;;;;5.58;100.00;100344.06;5032355;28;20075;-80
2021/12/05 13:39:40;;;;;;;16.58;9.60;;;;;;;5.56;100.00;100341.44;5041069;28;20508;-79
2021/12/05 13:42:22;;;;;;;18.20;9.82;;;;;;;5.54;100.00;100347.44;5039616;28;20024;-80
2021/12/05 13:45:00;;;;;;;19.92;10.25;;;;;;;5.54;100.00;100347.44;5035296;28;20026;-80
2021/12/05 13:47:32;;;;;;;20.83;10.98;;;;;;;5.54;100.00;100350.06;5037350;28;20462;-79
2021/12/05 13:50:21;;;;;;;21.85;10.48;;;;;;;5.54;100.00;100361.38;5034796;28;20029;-79
2021/12/05 13:52:52;;;;;;;46.17;22.70;;;;;;;5.60;100.00;100360.66;5034168;28;20045;-76
2021/12/05 13:55:56;;;;;;;23.70;12.27;;;;;;;5.66;100.00;100366.06;5031895;28;20110;-77
2021/12/05 13:58:45;;;;;;;19.92;11.35;;;;;;;5.70;100.00;100367.91;5033386;28;20421;-76
2021/12/05 14:01:33;;;;;;;26.67;12.18;;;;;;;5.76;100.00;100382.88;5031461;28;20029;-81
2021/12/05 14:04:27;;;;;;;24.33;12.90;;;;;;;5.77;100.00;100383.78;5036037;28;20017;-81
2021/12/05 14:07:01;;;;;;;32.50;13.85;;;;;;;5.71;100.00;100385.34;5031939;28;20037;-81
2021/12/05 14:09:26;;;;;;;28.67;13.90;;;;;;;5.70;100.00;100394.03;5036644;28;20025;-81
2021/12/05 14:11:54;;;;;;;30.38;14.75;;;;;;;5.65;100.00;100395.59;5034395;28;20039;-80
2021/12/05 14:14:25;;;;;;;28.88;15.13;;;;;;;5.62;100.00;100407.72;5034878;28;20033;-79
2021/12/05 14:16:53;;;;;;;35.85;16.08;;;;;;;5.57;100.00;100408.47;5031271;28;20038;-78
2021/12/05 14:19:23;;;;;;;41.00;17.15;;;;;;;5.57;100.00;100412.78;5032941;28;20116;-78
2021/12/05 14:21:52;;;;;;;34.85;15.23;;;;;;;5.57;100.00;100424.13;5031133;28;20390;-77
2021/12/05 14:24:24;;;;;;;30.27;14.88;;;;;;;5.54;100.00;100433.56;5032911;28;20033;-78
2021/12/05 14:26:52;;;;;;;27.88;13.98;;;;;;;5.47;100.00;100429.00;4995952;28;1087143;-78
2021/12/05 14:29:21;;;;;;;35.40;16.15;;;;;;;5.40;100.00;100441.84;5034459;28;20095;-78
2021/12/05 14:31:54;;;;;;;34.13;14.82;;;;;;;5.37;100.00;100451.28;5033276;28;20385;-78
2021/12/05 14:34:20;;;;;;;27.17;15.18;;;;;;;5.34;100.00;100446.88;5028499;28;20428;-78
2021/12/05 14:36:49;;;;;;;31.17;14.80;;;;;;;5.32;100.00;100452.91;5034278;28;20032;-79
2021/12/05 14:39:20;;;;;;;32.38;15.52;;;;;;;5.30;100.00;100455.44;5035386;28;20473;-79
2021/12/05 14:41:49;;;;;;;34.97;16.58;;;;;;;5.28;100.00;100462.34;5033680;28;20021;-79
2021/12/05 14:44:15;;;;;;;35.80;17.13;;;;;;;5.28;100.00;100472.78;5035648;28;20033;-79
2021/12/05 14:46:53;;;;;;;36.90;18.45;;;;;;;5.27;100.00;100486.66;5036136;28;20030;-78
2021/12/05 14:49:21;;;;;;;44.15;21.23;;;;;;;5.24;100.00;100492.66;5034109;28;20482;-79
2021/12/05 14:51:47;;;;;;;50.60;23.27;;;;;;;5.22;100.00;100496.03;5035237;28;20034;-78
2021/12/05 14:54:24;;;;;;;44.95;22.73;;;;;;;5.19;100.00;100503.78;5033610;28;20532;-78
2021/12/05 14:56:49;;;;;;;47.60;21.48;;;;;;;5.18;100.00;100515.94;5036014;28;20473;-78
2021/12/05 14:59:17;;;;;;;49.33;23.48;;;;;;;5.15;100.00;100523.66;5034175;28;20038;-79
2021/12/05 15:01:46;;;;;;;50.38;23.58;;;;;;;5.13;100.00;100521.81;5035096;28;20022;-79
2021/12/05 15:04:17;;;;;;;51.20;24.27;;;;;;;5.11;100.00;100532.19;5036200;28;20030;-78
2021/12/05 15:06:44;;;;;;;50.40;24.42;;;;;;;5.09;100.00;100544.31;5034306;28;20065;-78
2021/12/05 15:09:29;;;;;;;51.65;24.15;;;;;;;5.05;100.00;100552.88;5034290;28;20483;-79
2021/12/05 15:12:09;;;;;;;53.15;23.67;;;;;;;5.05;100.00;100553.75;5035191;28;20076;-77
2021/12/05 15:14:37;;;;;;;54.20;22.40;;;;;;;5.03;100.00;100560.66;5036100;28;20491;-78
2021/12/05 15:17:10;;;;;;;49.83;22.65;;;;;;;4.99;100.00;100566.59;5034545;28;20075;-79
2021/12/05 15:19:39;;;;;;;50.28;22.05;;;;;;;4.98;100.00;100569.13;5034766;28;20032;-77
2021/12/05 15:22:05;;;;;;;52.45;20.83;;;;;;;4.94;100.00;100575.97;5034018;28;20030;-77
2021/12/05 15:24:31;;;;;;;49.42;20.25;;;;;;;4.94;100.00;100581.19;5036491;28;20028;-78
2021/12/05 15:26:58;;;;;;;44.60;21.02;;;;;;;4.94;100.00;100582.88;5034171;28;20493;-77
2021/12/05 15:29:25;;;;;;;41.40;19.83;;;;;;;4.92;100.00;100590.66;5033829;28;20096;-78
2021/12/05 15:31:52;;;;;;;42.25;18.50;;;;;;;4.92;100.00;100600.22;5035721;28;20033;-77
2021/12/05 15:34:21;;;;;;;38.30;20.00;;;;;;;4.88;100.00;100594.91;5035370;28;20029;-79
2021/12/05 15:36:47;;;;;;;36.80;17.80;;;;;;;4.87;100.00;100595.72;5034528;28;20032;-79
2021/12/05 15:39:20;;;;;;;38.67;19.73;;;;;;;4.86;100.00;100598.28;5035360;28;20029;-78
2021/12/05 15:41:51;;;;;;;38.83;18.40;;;;;;;4.84;100.00;100610.38;5029685;28;20079;-76
2021/12/05 15:44:30;;;;;;;43.80;21.10;;;;;;;4.80;100.00;100614.59;5036108;28;20037;-77
2021/12/05 15:47:08;;;;;;;38.70;19.30;;;;;;;4.79;100.00;100623.25;5035459;28;20056;-79
2021/12/05 15:49:43;;;;;;;42.60;19.27;;;;;;;4.76;100.00;100623.16;5035621;28;20026;-78
2021/12/05 15:52:09;;;;;;;42.28;19.63;;;;;;;4.74;100.00;100619.56;5033076;28;20034;-78
2021/12/05 15:54:37;;;;;;;39.38;21.83;;;;;;;4.73;100.00;100628.22;5034146;28;20389;-79
2021/12/05 15:57:11;;;;;;;39.17;19.67;;;;;;;4.71;100.00;100640.31;5034451;28;20040;-78
2021/12/05 15:59:39;;;;;;;38.67;21.13;;;;;;;4.68;100.00;100646.31;5035675;28;20036;-77
2021/12/05 16:02:10;;;;;;;41.45;21.50;;;;;;;4.68;100.00;100641.09;5033823;28;20017;-79
2021/12/05 16:04:37;;;;;;;39.72;21.08;;;;;;;4.65;100.00;100648.81;5034889;28;20488;-79
2021/12/05 16:07:05;;;;;;;43.28;21.77;;;;;;;4.66;100.00;100658.38;5034261;28;20469;-79
2021/12/05 16:09:31;;;;;;;43.10;23.13;;;;;;;4.65;100.00;100656.63;5033757;28;20041;-79
2021/12/05 16:12:10;;;;;;;43.70;22.40;;;;;;;4.64;100.00;100660.06;5034807;28;20021;-77
2021/12/05 16:14:39;;;;;;;48.03;20.95;;;;;;;4.66;100.00;100668.81;5034106;28;20144;-78
2021/12/05 16:17:20;;;;;;;43.88;22.67;;;;;;;4.65;100.00;100676.56;5033618;28;20504;-79
2021/12/05 16:20:18;;;;;;;45.33;23.10;;;;;;;4.66;100.00;100675.75;5034274;28;20116;-78
2021/12/05 16:23:03;;;;;;;40.92;20.23;;;;;;;4.64;100.00;100680.91;5034003;28;20100;-79
2021/12/05 16:25:31;;;;;;;40.70;20.35;;;;;;;4.64;100.00;100687.81;5035143;28;20084;-79
2021/12/05 16:28:02;;;;;;;38.65;20.35;;;;;;;4.65;100.00;100695.72;5034742;28;20053;-79
2021/12/05 16:30:32;;;;;;;39.45;21.58;;;;;;;4.64;100.00;100695.63;5033337;28;20026;-79
2021/12/05 16:32:59;;;;;;;43.50;22.05;;;;;;;4.63;100.00;100692.16;5032365;28;20446;-79
2021/12/05 16:35:26;;;;;;;42.08;22.75;;;;;;;4.64;100.00;100696.53;5031269;28;20413;-79
2021/12/05 16:37:52;;;;;;;44.72;21.42;;;;;;;4.64;100.00;100704.38;5033589;28;20025;-79
2021/12/05 16:40:17;;;;;;;44.22;23.70;;;;;;;4.64;100.00;100712.19;5032907;28;20036;-77
2021/12/05 16:42:44;;;;;;;46.17;22.98;;;;;;;4.61;100.00;100722.47;5033946;28;20061;-78
2021/12/05 16:45:11;;;;;;;41.42;20.88;;;;;;;4.60;100.00;100731.13;5033191;28;20087;-78
2021/12/05 16:47:37;;;;;;;41.55;21.83;;;;;;;4.58;100.00;100727.56;5033274;28;20040;-78
2021/12/05 16:50:07;;;;;;;48.13;21.02;;;;;;;4.55;100.00;100738.75;5032897;28;20025;-78
2021/12/05 16:52:42;;;;;;;42.25;21.80;;;;;;;4.52;100.00;100738.63;5033412;28;20031;-78
2021/12/05 16:55:23;;;;;;;37.35;19.85;;;;;;;4.50;100.00;100742.00;5027650;28;20037;-78